メインページ
METAR-TAF:

METAR-TAF

空港 :

ニノイ・アキノ国際空港

マニラ, フィリピン

緯度: 14-31N, 経度: 121-00E, 海抜: 14m

現時点の気象観測

当レポートは1時間24分前の03:00(UTC)に作成
東/南東の風 10kt
気温 31°C
湿度 49%
気圧 1014 hPa
視程10km以上
高度2300ftの雲はほとんどない

METAR: RPLL 250300Z 12010KT 9999 FEW023 31/19 Q1014 NOSIG RMK A2994

時間: 12:24 (04:24 UTC)

予報

当レポートは5時間24分前の23:00(UTC)に作成
予報は25日の 00時(UTC)から 26日の 06時(UTC)まで有効
東/南東の風 8kt
視程10km以上
高度2500ftの雲はほとんどない
25日の 00時(UTC)から 25日の 06時(UTC)まで一時的に
の風 14kt
高度2300ftの雲は散在している
25日の 06時(UTC)から 25日の 12時(UTC)まで一時的に
東/南東の風 16kt
高度2500ftの雲はほとんどない
高度10000ftの雲は散在している

TAF: RPLL 242300Z 2500/2606 11008KT 9999 FEW025 TX32/2506Z TN26/2521Z TEMPO 2500/2506 09014KT SCT023 TEMPO 2506/2512 12016KT FEW025 SCT100

4,000以上の空港の気象観測と天気予報(METAR報とTAF報)

利用可能な観測所は地図上に黄色い丸と赤い丸で示す。

丸の上にカーソルを重ねると観測所名を参照できる。

次にクリックすると気象観測と天気予報を参照できる。

マップの切り替え:黒色「×」印の緑ボタンをクリックして拡大、「-」印の緑ボタンをクリックして縮小、緑色の三角印をクリックして隣りの地図に切り替え


METAR-TAF: